Time,TemperatureF,DewpointF,PressureIn,WindDirection,WindDirectionDegrees,WindSpeedMPH,WindSpeedGustMPH,Humidity,HourlyPrecipIn,Conditions,Clouds,dailyrainin,SoftwareType,DateUTC
2013-01-25 00:00:00,42.3,41.2,30.03,SE,130,1.0,1.0,96,0.00,,,0.14,Wunderground v.1.15,2013-01-25 08:00:00,
2013-01-25 00:10:00,42.3,41.2,30.03,South,175,0.0,0.0,96,0.00,,,0.00,Wunderground v.1.15,2013-01-25 08:10:00,
2013-01-25 00:15:00,42.4,41.6,30.02,ESE,123,0.0,2.0,97,0.00,,,0.00,Wunderground v.1.15,2013-01-25 08:15:00,
2013-01-25 00:25:00,42.4,41.6,30.02,South,169,0.0,1.0,97,0.00,,,0.01,Wunderground v.1.15,2013-01-25 08:25:00,
2013-01-25 00:35:00,42.5,41.7,30.02,SE,133,0.0,4.0,97,0.00,,,0.01,Wunderground v.1.15,2013-01-25 08:35:00,
2013-01-25 00:45:00,42.5,41.7,30.02,South,185,0.0,4.0,97,0.00,,,0.02,Wunderground v.1.15,2013-01-25 08:45:00,
2013-01-25 00:55:00,42.6,41.8,30.02,SE,141,0.0,4.0,97,0.00,,,0.02,Wunderground v.1.15,2013-01-25 08:55:00,
2013-01-25 01:05:00,42.6,41.8,30.02,SSE,154,0.0,0.0,97,0.00,,,0.02,Wunderground v.1.15,2013-01-25 09:05:00,
2013-01-25 01:15:00,42.7,41.9,30.02,SSW,212,0.0,2.0,97,0.00,,,0.02,Wunderground v.1.15,2013-01-25 09:15:00,
2013-01-25 01:25:00,42.9,42.1,30.02,SSW,204,0.0,0.0,97,0.00,,,0.02,Wunderground v.1.15,2013-01-25 09:25:00,
2013-01-25 01:35:00,43.1,42.3,30.02,SSW,202,1.0,3.0,97,0.00,,,0.02,Wunderground v.1.15,2013-01-25 09:35:00,
2013-01-25 01:40:00,43.2,42.4,30.02,South,175,0.0,3.0,97,0.00,,,0.02,Wunderground v.1.15,2013-01-25 09:40:00,
2013-01-25 01:45:00,43.2,42.4,30.02,South,185,0.0,3.0,97,0.00,,,0.02,Wunderground v.1.15,2013-01-25 09:45:00,
2013-01-25 01:55:00,43.2,42.4,30.02,SSE,159,0.0,3.0,97,0.00,,,0.02,Wunderground v.1.15,2013-01-25 09:55:00,
2013-01-25 02:00:00,43.1,42.3,30.02,South,175,0.0,0.0,97,0.00,,,0.02,Wunderground v.1.15,2013-01-25 10:00:00,
2013-01-25 02:05:00,43.1,42.3,30.02,SW,222,0.0,0.0,97,0.00,,,0.02,Wunderground v.1.15,2013-01-25 10:05:00,
2013-01-25 02:15:00,43.1,42.3,30.02,South,175,0.0,1.0,97,0.00,,,0.02,Wunderground v.1.15,2013-01-25 10:15:00,
2013-01-25 02:20:00,43.1,42.3,30.02,South,175,0.0,0.0,97,0.00,,,0.02,Wunderground v.1.15,2013-01-25 10:20:00,
2013-01-25 02:25:00,43.1,42.3,30.02,SE,129,0.0,0.0,97,0.00,,,0.03,Wunderground v.1.15,2013-01-25 10:25:00,
2013-01-25 02:35:00,43.2,42.4,30.02,South,175,0.0,3.0,97,0.00,,,0.03,Wunderground v.1.15,2013-01-25 10:35:00,
2013-01-25 02:45:00,43.3,42.5,30.02,SE,134,0.0,3.0,97,0.00,,,0.03,Wunderground v.1.15,2013-01-25 10:45:00,
2013-01-25 02:55:00,43.3,42.5,30.02,SSW,195,0.0,3.0,97,0.00,,,0.03,Wunderground v.1.15,2013-01-25 10:55:00,
2013-01-25 03:05:00,43.4,42.6,30.01,SE,143,0.0,1.0,97,0.00,,,0.03,Wunderground v.1.15,2013-01-25 11:05:00,
2013-01-25 03:15:00,43.4,42.6,30.02,SSE,149,0.0,0.0,97,0.00,,,0.03,Wunderground v.1.15,2013-01-25 11:15:00,
2013-01-25 03:25:00,43.5,42.7,30.02,South,175,0.0,0.0,97,0.00,,,0.03,Wunderground v.1.15,2013-01-25 11:25:00,
2013-01-25 03:35:00,43.6,42.8,30.01,ESE,107,0.0,3.0,97,0.00,,,0.03,Wunderground v.1.15,2013-01-25 11:35:00,
2013-01-25 03:45:00,43.7,42.9,30.01,SSW,203,0.0,3.0,97,0.00,,,0.03,Wunderground v.1.15,2013-01-25 11:45:00,
2013-01-25 03:55:00,43.8,43.3,30.01,East,96,0.0,3.0,98,0.00,,,0.03,Wunderground v.1.15,2013-01-25 11:55:00,
2013-01-25 04:05:00,44.0,43.5,30.01,North,349,0.0,0.0,98,0.00,,,0.03,Wunderground v.1.15,2013-01-25 12:05:00,
2013-01-25 04:15:00,44.0,43.5,30.01,South,185,0.0,0.0,98,0.00,,,0.03,Wunderground v.1.15,2013-01-25 12:15:00,
2013-01-25 04:20:00,44.0,43.5,30.01,SSW,199,0.0,1.0,98,0.00,,,0.03,Wunderground v.1.15,2013-01-25 12:20:00,
2013-01-25 04:25:00,44.1,43.6,30.01,SSE,158,0.0,1.0,98,0.00,,,0.03,Wunderground v.1.15,2013-01-25 12:25:00,
2013-01-25 04:35:00,44.2,43.4,30.01,SSW,195,0.0,3.0,97,0.00,,,0.03,Wunderground v.1.15,2013-01-25 12:35:00,
2013-01-25 04:45:00,44.2,43.4,30.01,South,185,0.0,3.0,97,0.00,,,0.03,Wunderground v.1.15,2013-01-25 12:45:00,
2013-01-25 04:55:00,44.3,43.5,30.01,South,189,0.0,3.0,97,0.00,,,0.03,Wunderground v.1.15,2013-01-25 12:55:00,
2013-01-25 05:05:00,44.4,43.6,30.01,NNE,31,0.0,1.0,97,0.00,,,0.03,Wunderground v.1.15,2013-01-25 13:05:00,
2013-01-25 05:15:00,44.5,44.0,30.01,SSW,210,0.0,0.0,98,0.00,,,0.03,Wunderground v.1.15,2013-01-25 13:15:00,
2013-01-25 05:25:00,44.7,43.9,30.01,SSE,164,0.0,0.0,97,0.00,,,0.03,Wunderground v.1.15,2013-01-25 13:25:00,
2013-01-25 05:35:00,44.8,44.0,30.01,East,97,0.0,2.0,97,0.00,,,0.03,Wunderground v.1.15,2013-01-25 13:35:00,
2013-01-25 05:45:00,44.9,44.1,30.01,SSW,195,0.0,2.0,97,0.00,,,0.03,Wunderground v.1.15,2013-01-25 13:45:00,
2013-01-25 05:55:00,45.0,44.2,30.01,SSW,199,0.0,2.0,97,0.00,,,0.03,Wunderground v.1.15,2013-01-25 13:55:00,
2013-01-25 06:05:00,45.1,44.3,30.01,South,175,0.0,0.0,97,0.00,,,0.03,Wunderground v.1.15,2013-01-25 14:05:00,
2013-01-25 06:10:00,45.0,44.2,30.01,South,175,0.0,0.0,97,0.00,,,0.03,Wunderground v.1.15,2013-01-25 14:10:00,
2013-01-25 06:15:00,45.1,44.3,30.01,South,180,0.0,1.0,97,0.00,,,0.03,Wunderground v.1.15,2013-01-25 14:15:00,
2013-01-25 06:25:00,45.1,44.3,30.01,SSW,204,0.0,1.0,97,0.00,,,0.03,Wunderground v.1.15,2013-01-25 14:25:00,
2013-01-25 06:35:00,45.1,44.3,30.01,South,185,0.0,2.0,97,0.00,,,0.03,Wunderground v.1.15,2013-01-25 14:35:00,
2013-01-25 06:40:00,45.1,44.3,30.01,South,185,0.0,2.0,97,0.00,,,0.03,Wunderground v.1.15,2013-01-25 14:40:00,
2013-01-25 06:45:00,45.1,44.3,30.02,South,185,0.0,2.0,97,0.00,,,0.03,Wunderground v.1.15,2013-01-25 14:45:00,
2013-01-25 06:55:00,45.2,44.4,30.01,WSW,251,0.0,2.0,97,0.00,,,0.03,Wunderground v.1.15,2013-01-25 14:55:00,
2013-01-25 07:00:00,45.3,44.2,30.01,SSE,164,0.0,1.0,96,0.00,,,0.03,Wunderground v.1.15,2013-01-25 15:00:00,
2013-01-25 07:05:00,45.3,44.2,30.01,SSW,195,1.0,1.0,96,0.00,,,0.03,Wunderground v.1.15,2013-01-25 15:05:00,
2013-01-25 07:15:00,45.5,44.4,30.01,WSW,254,1.0,1.0,96,0.00,,,0.03,Wunderground v.1.15,2013-01-25 15:15:00,
2013-01-25 07:25:00,45.6,44.3,30.01,South,185,1.0,2.0,95,0.00,,,0.03,Wunderground v.1.15,2013-01-25 15:25:00,
2013-01-25 07:35:00,45.7,44.4,30.01,South,185,1.0,2.0,95,0.00,,,0.03,Wunderground v.1.15,2013-01-25 15:35:00,
2013-01-25 07:50:00,45.8,44.2,30.01,SW,234,1.0,2.0,94,0.00,,,0.03,Wunderground v.1.15,2013-01-25 15:50:00,
2013-01-25 07:55:00,45.8,44.2,30.01,SSE,162,1.0,2.0,94,0.00,,,0.03,Wunderground v.1.15,2013-01-25 15:55:00,
2013-01-25 08:05:00,45.8,44.2,30.01,South,185,0.0,1.0,94,0.00,,,0.03,Wunderground v.1.15,2013-01-25 16:05:00,
2013-01-25 08:15:00,45.8,44.2,30.01,South,180,0.0,0.0,94,0.00,,,0.03,Wunderground v.1.15,2013-01-25 16:15:00,
2013-01-25 08:25:00,45.9,44.3,30.02,South,191,0.0,1.0,94,0.00,,,0.03,Wunderground v.1.15,2013-01-25 16:25:00,
2013-01-25 08:30:00,45.9,44.3,30.02,South,180,1.0,1.0,94,0.00,,,0.03,Wunderground v.1.15,2013-01-25 16:30:00,
2013-01-25 08:35:00,45.9,44.3,30.02,WSW,245,1.0,7.0,94,0.00,,,0.03,Wunderground v.1.15,2013-01-25 16:35:00,
2013-01-25 08:45:00,45.7,43.8,30.02,South,185,0.0,7.0,93,0.00,,,0.03,Wunderground v.1.15,2013-01-25 16:45:00,
2013-01-25 08:55:00,45.7,44.1,30.02,South,180,1.0,7.0,94,0.00,,,0.03,Wunderground v.1.15,2013-01-25 16:55:00,
2013-01-25 09:00:00,45.8,44.2,30.02,SSW,202,1.0,1.0,94,0.00,,,0.03,Wunderground v.1.15,2013-01-25 17:00:00,
2013-01-25 09:10:00,45.9,44.3,30.02,SSW,208,1.0,1.0,94,0.00,,,0.03,Wunderground v.1.15,2013-01-25 17:10:00,
2013-01-25 09:15:00,46.1,44.5,30.02,South,180,1.0,1.0,94,0.00,,,0.03,Wunderground v.1.15,2013-01-25 17:15:00,
2013-01-25 09:25:00,46.4,44.8,30.02,SSE,164,0.0,1.0,94,0.00,,,0.03,Wunderground v.1.15,2013-01-25 17:25:00,
2013-01-25 09:35:00,46.5,44.6,30.02,South,175,0.0,4.0,93,0.00,,,0.03,Wunderground v.1.15,2013-01-25 17:35:00,
2013-01-25 09:45:00,46.6,44.7,30.02,SW,221,0.0,4.0,93,0.00,,,0.03,Wunderground v.1.15,2013-01-25 17:45:00,
2013-01-25 09:55:00,46.8,44.9,30.03,South,191,0.0,4.0,93,0.00,,,0.03,Wunderground v.1.15,2013-01-25 17:55:00,
2013-01-25 10:05:00,46.9,45.0,30.02,South,191,0.0,0.0,93,0.00,,,0.03,Wunderground v.1.15,2013-01-25 18:05:00,
2013-01-25 10:15:00,47.1,45.2,30.03,South,191,0.0,0.0,93,0.00,,,0.03,Wunderground v.1.15,2013-01-25 18:15:00,
2013-01-25 10:25:00,47.2,45.0,30.03,SSW,192,0.0,0.0,92,0.00,,,0.03,Wunderground v.1.15,2013-01-25 18:25:00,
2013-01-25 10:35:00,47.4,45.5,30.02,SSW,202,0.0,4.0,93,0.00,,,0.03,Wunderground v.1.15,2013-01-25 18:35:00,
2013-01-25 10:45:00,47.4,45.2,30.02,SSW,202,0.0,4.0,92,0.00,,,0.03,Wunderground v.1.15,2013-01-25 18:45:00,
2013-01-25 10:55:00,47.5,45.6,30.02,SSW,202,0.0,4.0,93,0.00,,,0.03,Wunderground v.1.15,2013-01-25 18:55:00,
2013-01-25 11:05:00,47.5,45.6,30.02,SSE,160,0.0,0.0,93,0.00,,,0.03,Wunderground v.1.15,2013-01-25 19:05:00,
2013-01-25 11:15:00,47.7,46.1,30.01,SSE,160,0.0,0.0,94,0.00,,,0.03,Wunderground v.1.15,2013-01-25 19:15:00,
2013-01-25 11:25:00,48.0,46.1,30.01,SSE,163,0.0,0.0,93,0.00,,,0.03,Wunderground v.1.15,2013-01-25 19:25:00,
2013-01-25 11:35:00,48.2,46.0,30.01,South,175,0.0,0.0,92,0.00,,,0.03,Wunderground v.1.15,2013-01-25 19:35:00,
2013-01-25 11:45:00,48.5,46.6,30.00,South,175,0.0,0.0,93,0.00,,,0.03,Wunderground v.1.15,2013-01-25 19:45:00,
2013-01-25 11:55:00,48.7,46.2,30.00,South,175,0.0,0.0,91,0.00,,,0.03,Wunderground v.1.15,2013-01-25 19:55:00,
2013-01-25 12:05:00,48.8,46.0,29.99,South,175,0.0,0.0,90,0.00,,,0.03,Wunderground v.1.15,2013-01-25 20:05:00,
2013-01-25 12:15:00,49.0,46.2,29.99,South,185,0.0,0.0,90,0.00,,,0.03,Wunderground v.1.15,2013-01-25 20:15:00,
2013-01-25 12:25:00,49.2,46.1,29.99,NNW,345,0.0,0.0,89,0.00,,,0.03,Wunderground v.1.15,2013-01-25 20:25:00,
2013-01-25 12:35:00,49.4,46.3,29.98,SSE,166,0.0,1.0,89,0.00,,,0.03,Wunderground v.1.15,2013-01-25 20:35:00,
2013-01-25 12:45:00,49.8,46.1,29.98,NW,318,0.0,1.0,87,0.00,,,0.03,Wunderground v.1.15,2013-01-25 20:45:00,
2013-01-25 12:55:00,50.1,46.1,29.97,SSW,210,0.0,1.0,86,0.00,,,0.03,Wunderground v.1.15,2013-01-25 20:55:00,
2013-01-25 13:05:00,50.4,46.7,29.97,South,185,0.0,0.0,87,0.00,,,0.03,Wunderground v.1.15,2013-01-25 21:05:00,
2013-01-25 13:15:00,50.6,46.3,29.97,South,185,0.0,1.0,85,0.00,,,0.03,Wunderground v.1.15,2013-01-25 21:15:00,
2013-01-25 13:25:00,50.9,46.2,29.96,South,185,0.0,2.0,84,0.00,,,0.03,Wunderground v.1.15,2013-01-25 21:25:00,
2013-01-25 13:35:00,50.9,45.9,29.96,NW,326,0.0,2.0,83,0.00,,,0.03,Wunderground v.1.15,2013-01-25 21:35:00,
2013-01-25 13:45:00,50.6,45.6,29.96,South,185,0.0,2.0,83,0.00,,,0.03,Wunderground v.1.15,2013-01-25 21:45:00,
2013-01-25 13:55:00,50.7,45.7,29.96,South,170,0.0,2.0,83,0.00,,,0.03,Wunderground v.1.15,2013-01-25 21:55:00,
2013-01-25 14:05:00,50.8,45.8,29.95,South,175,0.0,0.0,83,0.00,,,0.03,Wunderground v.1.15,2013-01-25 22:05:00,
2013-01-25 14:15:00,50.6,45.3,29.95,SSW,203,0.0,0.0,82,0.00,,,0.03,Wunderground v.1.15,2013-01-25 22:15:00,
2013-01-25 14:25:00,50.6,44.3,29.95,South,175,0.0,0.0,79,0.00,,,0.03,Wunderground v.1.15,2013-01-25 22:25:00,
2013-01-25 14:30:00,50.7,44.4,29.94,SSE,158,0.0,0.0,79,0.00,,,0.03,Wunderground v.1.15,2013-01-25 22:30:00,
2013-01-25 14:35:00,50.6,44.3,29.94,South,180,0.0,1.0,79,0.00,,,0.03,Wunderground v.1.15,2013-01-25 22:35:00,
2013-01-25 14:45:00,50.5,44.2,29.94,SSE,158,0.0,2.0,79,0.00,,,0.03,Wunderground v.1.15,2013-01-25 22:45:00,
2013-01-25 14:55:00,50.3,44.4,29.93,SSE,164,0.0,2.0,80,0.00,,,0.03,Wunderground v.1.15,2013-01-25 22:55:00,
2013-01-25 15:05:00,50.1,44.2,29.93,SSE,158,0.0,0.0,80,0.00,,,0.03,Wunderground v.1.15,2013-01-25 23:05:00,
2013-01-25 15:15:00,49.7,43.5,29.93,South,190,0.0,0.0,79,0.00,,,0.03,Wunderground v.1.15,2013-01-25 23:15:00,
2013-01-25 15:25:00,49.4,43.5,29.93,South,175,0.0,1.0,80,0.00,,,0.03,Wunderground v.1.15,2013-01-25 23:25:00,
2013-01-25 15:35:00,49.1,43.5,29.93,ESE,120,0.0,3.0,81,0.00,,,0.03,Wunderground v.1.15,2013-01-25 23:35:00,
2013-01-25 15:45:00,48.8,43.5,29.93,SSE,150,0.0,3.0,82,0.00,,,0.03,Wunderground v.1.15,2013-01-25 23:45:00,
2013-01-25 15:55:00,48.5,43.6,29.93,South,180,0.0,3.0,83,0.00,,,0.03,Wunderground v.1.15,2013-01-25 23:55:00,
2013-01-25 16:00:00,48.4,43.5,29.93,South,185,0.0,0.0,83,0.00,,,0.03,Wunderground v.1.15,2013-01-26 00:00:00,
2013-01-25 16:05:00,48.3,43.4,29.93,SSW,193,0.0,0.0,83,0.00,,,0.03,Wunderground v.1.15,2013-01-26 00:05:00,
2013-01-25 16:15:00,48.0,43.1,29.93,SSW,194,0.0,0.0,83,0.00,,,0.03,Wunderground v.1.15,2013-01-26 00:15:00,
2013-01-25 16:25:00,47.8,43.2,29.93,South,185,0.0,0.0,84,0.00,,,0.03,Wunderground v.1.15,2013-01-26 00:25:00,
2013-01-25 16:35:00,47.6,43.0,29.93,SW,223,0.0,3.0,84,0.00,,,0.03,Wunderground v.1.15,2013-01-26 00:35:00,
2013-01-25 16:45:00,47.5,42.9,29.93,SSW,199,0.0,3.0,84,0.00,,,0.03,Wunderground v.1.15,2013-01-26 00:45:00,
2013-01-25 16:55:00,47.4,42.8,29.93,SSW,210,0.0,3.0,84,0.00,,,0.03,Wunderground v.1.15,2013-01-26 00:55:00,
2013-01-25 17:05:00,47.3,43.0,29.93,South,171,0.0,0.0,85,0.00,,,0.03,Wunderground v.1.15,2013-01-26 01:05:00,
2013-01-25 17:15:00,47.0,42.7,29.92,South,185,0.0,0.0,85,0.00,,,0.03,Wunderground v.1.15,2013-01-26 01:15:00,
2013-01-25 17:20:00,46.8,42.8,29.92,SSW,195,0.0,0.0,86,0.00,,,0.03,Wunderground v.1.15,2013-01-26 01:20:00,
2013-01-25 17:25:00,46.7,42.7,29.92,SSE,151,0.0,0.0,86,0.00,,,0.03,Wunderground v.1.15,2013-01-26 01:25:00,
2013-01-25 17:35:00,46.4,42.7,29.92,SSW,208,0.0,1.0,87,0.00,,,0.03,Wunderground v.1.15,2013-01-26 01:35:00,
2013-01-25 17:45:00,46.2,42.5,29.92,SE,143,0.0,1.0,87,0.00,,,0.03,Wunderground v.1.15,2013-01-26 01:45:00,
2013-01-25 17:55:00,46.0,42.3,29.92,SSE,160,0.0,1.0,87,0.00,,,0.03,Wunderground v.1.15,2013-01-26 01:55:00,
2013-01-25 18:00:00,45.9,42.5,29.92,South,175,0.0,0.0,88,0.00,,,0.03,Wunderground v.1.15,2013-01-26 02:00:00,
2013-01-25 18:05:00,45.8,42.4,29.92,South,180,0.0,0.0,88,0.00,,,0.03,Wunderground v.1.15,2013-01-26 02:05:00,
2013-01-25 18:15:00,45.6,42.3,29.92,South,180,0.0,0.0,88,0.00,,,0.03,Wunderground v.1.15,2013-01-26 02:15:00,
2013-01-25 18:20:00,45.4,42.1,29.92,South,180,0.0,0.0,88,0.00,,,0.03,Wunderground v.1.15,2013-01-26 02:20:00,
2013-01-25 18:25:00,45.2,42.2,29.92,South,185,0.0,0.0,89,0.00,,,0.03,Wunderground v.1.15,2013-01-26 02:25:00,
2013-01-25 18:35:00,44.8,42.0,29.92,South,185,0.0,2.0,90,0.00,,,0.03,Wunderground v.1.15,2013-01-26 02:35:00,
2013-01-25 18:45:00,44.6,42.1,29.92,ESE,111,0.0,2.0,91,0.00,,,0.03,Wunderground v.1.15,2013-01-26 02:45:00,
2013-01-25 18:50:00,44.6,42.1,29.92,SE,130,0.0,2.0,91,0.00,,,0.03,Wunderground v.1.15,2013-01-26 02:50:00,
2013-01-25 18:55:00,44.5,42.0,29.92,SE,131,0.0,2.0,91,0.00,,,0.03,Wunderground v.1.15,2013-01-26 02:55:00,
2013-01-25 19:05:00,44.3,41.8,29.92,SE,131,0.0,0.0,91,0.00,,,0.03,Wunderground v.1.15,2013-01-26 03:05:00,
2013-01-25 19:15:00,44.2,41.7,29.92,South,180,0.0,0.0,91,0.00,,,0.03,Wunderground v.1.15,2013-01-26 03:15:00,
2013-01-25 19:25:00,44.0,41.5,29.91,SSE,164,0.0,0.0,91,0.00,,,0.03,Wunderground v.1.15,2013-01-26 03:25:00,
2013-01-25 19:35:00,44.0,41.5,29.91,SSW,193,0.0,1.0,91,0.00,,,0.03,Wunderground v.1.15,2013-01-26 03:35:00,
2013-01-25 19:45:00,44.5,41.5,29.91,South,169,1.0,1.0,89,0.00,,,0.03,Wunderground v.1.15,2013-01-26 03:45:00,
2013-01-25 19:55:00,44.8,41.2,29.91,South,175,1.0,2.0,87,0.00,,,0.03,Wunderground v.1.15,2013-01-26 03:55:00,
2013-01-25 20:05:00,44.9,41.0,29.91,South,191,1.0,1.0,86,0.00,,,0.03,Wunderground v.1.15,2013-01-26 04:05:00,
2013-01-25 20:15:00,44.8,41.2,29.91,SSE,160,0.0,1.0,87,0.00,,,0.03,Wunderground v.1.15,2013-01-26 04:15:00,
2013-01-25 20:25:00,44.9,41.3,29.91,SSW,213,1.0,1.0,87,0.00,,,0.03,Wunderground v.1.15,2013-01-26 04:25:00,
2013-01-25 20:35:00,44.8,40.9,29.91,South,180,1.0,3.0,86,0.00,,,0.03,Wunderground v.1.15,2013-01-26 04:35:00,
2013-01-25 20:45:00,44.7,40.8,29.91,SSW,200,1.0,3.0,86,0.00,,,0.03,Wunderground v.1.15,2013-01-26 04:45:00,
2013-01-25 20:55:00,44.6,40.7,29.91,NW,308,0.0,3.0,86,0.00,,,0.03,Wunderground v.1.15,2013-01-26 04:55:00,
2013-01-25 21:00:00,44.6,40.7,29.91,South,175,0.0,0.0,86,0.00,,,0.03,Wunderground v.1.15,2013-01-26 05:00:00,
2013-01-25 21:05:00,44.6,40.7,29.91,NNE,30,0.0,0.0,86,0.00,,,0.03,Wunderground v.1.15,2013-01-26 05:05:00,
2013-01-25 21:10:00,44.5,40.6,29.90,SSW,201,1.0,1.0,86,0.00,,,0.03,Wunderground v.1.15,2013-01-26 05:10:00,
2013-01-25 21:15:00,44.4,40.8,29.90,South,180,1.0,2.0,87,0.00,,,0.03,Wunderground v.1.15,2013-01-26 05:15:00,
2013-01-25 21:25:00,44.1,40.8,29.90,South,191,0.0,1.0,88,0.00,,,0.03,Wunderground v.1.15,2013-01-26 05:25:00,
2013-01-25 21:30:00,44.0,40.7,29.90,SSW,202,0.0,0.0,88,0.00,,,0.03,Wunderground v.1.15,2013-01-26 05:30:00,
2013-01-25 21:35:00,43.9,40.6,29.91,SSE,147,0.0,5.0,88,0.00,,,0.03,Wunderground v.1.15,2013-01-26 05:35:00,
2013-01-25 21:45:00,43.7,40.1,29.91,SSE,166,0.0,5.0,87,0.00,,,0.03,Wunderground v.1.15,2013-01-26 05:45:00,
2013-01-25 21:55:00,43.5,39.9,29.91,SSW,202,0.0,5.0,87,0.00,,,0.03,Wunderground v.1.15,2013-01-26 05:55:00,
2013-01-25 22:05:00,43.4,40.1,29.91,SSE,151,0.0,0.0,88,0.00,,,0.03,Wunderground v.1.15,2013-01-26 06:05:00,
2013-01-25 22:15:00,43.6,40.6,29.91,SSE,150,0.0,0.0,89,0.00,,,0.03,Wunderground v.1.15,2013-01-26 06:15:00,
2013-01-25 22:25:00,43.8,40.8,29.91,SE,145,0.0,0.0,89,0.00,,,0.03,Wunderground v.1.15,2013-01-26 06:25:00,
2013-01-25 22:30:00,43.8,40.5,29.91,SE,139,0.0,0.0,88,0.00,,,0.03,Wunderground v.1.15,2013-01-26 06:30:00,
2013-01-25 22:35:00,43.9,40.6,29.91,SSW,206,0.0,5.0,88,0.00,,,0.03,Wunderground v.1.15,2013-01-26 06:35:00,
2013-01-25 22:45:00,44.0,40.4,29.90,South,190,0.0,5.0,87,0.00,,,0.03,Wunderground v.1.15,2013-01-26 06:45:00,
2013-01-25 22:55:00,43.9,40.3,29.90,South,180,0.0,5.0,87,0.00,,,0.03,Wunderground v.1.15,2013-01-26 06:55:00,
2013-01-25 23:05:00,43.8,39.9,29.90,South,175,0.0,0.0,86,0.00,,,0.03,Wunderground v.1.15,2013-01-26 07:05:00,
2013-01-25 23:15:00,43.4,39.8,29.90,SSW,198,0.0,0.0,87,0.00,,,0.03,Wunderground v.1.15,2013-01-26 07:15:00,
2013-01-25 23:20:00,43.2,39.9,29.90,SSW,200,0.0,0.0,88,0.00,,,0.03,Wunderground v.1.15,2013-01-26 07:20:00,
2013-01-25 23:25:00,43.1,39.8,29.90,SSW,194,0.0,1.0,88,0.00,,,0.03,Wunderground v.1.15,2013-01-26 07:25:00,
2013-01-25 23:35:00,43.1,39.5,29.90,SSE,156,0.0,3.0,87,0.00,,,0.03,Wunderground v.1.15,2013-01-26 07:35:00,
2013-01-25 23:45:00,42.9,39.6,29.90,SSE,153,0.0,3.0,88,0.00,,,0.03,Wunderground v.1.15,2013-01-26 07:45:00,
2013-01-25 23:55:00,42.7,39.4,29.90,SSE,168,0.0,3.0,88,0.00,,,0.03,Wunderground v.1.15,2013-01-26 07:55:00,